createdAt,value
2017-10-25T00:02:01.528Z,24.72
2017-10-25T00:04:29.820Z,22.68
2017-10-25T00:06:59.060Z,19.24
2017-10-25T00:09:27.361Z,26.36
2017-10-25T00:11:57.592Z,32.42
2017-10-25T00:14:25.879Z,21.80
2017-10-25T00:17:01.959Z,21.50
2017-10-25T00:19:30.215Z,21.16
2017-10-25T00:22:10.878Z,20.52
2017-10-25T00:24:40.084Z,18.68
2017-10-25T00:27:16.241Z,17.18
2017-10-25T00:29:44.541Z,20.94
2017-10-25T00:35:05.936Z,20.44
2017-10-25T00:37:34.196Z,21.52
2017-10-25T00:40:08.078Z,22.78
2017-10-25T00:42:36.376Z,18.78
2017-10-25T00:45:25.967Z,18.74
2017-10-25T00:47:54.222Z,20.56
2017-10-25T00:50:27.147Z,23.32
2017-10-25T00:52:55.439Z,15.92
2017-10-25T00:55:23.731Z,22.60
2017-10-25T00:57:53.117Z,21.82
2017-10-25T01:00:22.064Z,22.40
2017-10-25T01:02:50.326Z,23.20
2017-10-25T01:05:35.955Z,21.70
2017-10-25T01:08:04.215Z,22.54
2017-10-25T01:10:33.479Z,25.08
2017-10-25T01:13:01.749Z,23.80
2017-10-25T01:15:37.195Z,26.20
2017-10-25T01:18:05.461Z,23.92
2017-10-25T01:20:39.983Z,24.92
2017-10-25T01:23:08.320Z,30.48
2017-10-25T01:25:44.111Z,25.62
2017-10-25T01:28:11.600Z,28.14
2017-10-25T01:31:00.334Z,28.22
2017-10-25T01:33:28.593Z,27.76
2017-10-25T01:35:56.887Z,22.56
2017-10-25T01:38:25.151Z,26.48
2017-10-25T01:40:56.818Z,27.54
2017-10-25T01:43:25.104Z,26.16
2017-10-25T01:45:54.522Z,38.82
2017-10-25T01:48:24.085Z,59.72
2017-10-25T01:50:53.182Z,33.88
2017-10-25T01:53:22.191Z,39.38
2017-10-25T01:55:53.923Z,46.48
2017-10-25T01:58:23.447Z,27.16
2017-10-25T02:00:54.915Z,24.78
2017-10-25T02:03:24.414Z,23.40
2017-10-25T02:06:12.978Z,28.04
2017-10-25T02:08:41.271Z,29.84
2017-10-25T02:11:22.883Z,26.86
2017-10-25T02:13:51.192Z,33.54
2017-10-25T02:16:26.897Z,28.06
2017-10-25T02:18:55.198Z,21.02
2017-10-25T02:21:43.048Z,25.16
2017-10-25T02:24:11.347Z,22.96
2017-10-25T02:26:59.835Z,30.72
2017-10-25T02:29:28.130Z,23.14
2017-10-25T02:31:59.959Z,23.80
2017-10-25T02:34:28.245Z,24.92
2017-10-25T02:36:56.526Z,26.92
2017-10-25T02:39:26.745Z,21.26
2017-10-25T02:41:55.007Z,28.00
2017-10-25T02:44:37.040Z,25.54
2017-10-25T02:47:05.300Z,21.92
2017-10-25T02:49:32.821Z,31.80
2017-10-25T02:52:01.121Z,24.28
2017-10-25T02:54:43.200Z,26.82
2017-10-25T02:57:11.494Z,21.60
2017-10-25T02:59:59.887Z,23.62
2017-10-25T03:02:28.142Z,22.32
2017-10-25T03:05:06.575Z,24.48
2017-10-25T03:07:34.834Z,26.52
2017-10-25T03:10:12.902Z,27.40
2017-10-25T03:12:41.158Z,23.68
2017-10-25T03:15:11.399Z,21.70
2017-10-25T03:17:39.652Z,24.12
2017-10-25T03:20:09.022Z,22.58
2017-10-25T03:22:37.307Z,24.56
2017-10-25T03:25:05.577Z,18.22
2017-10-25T03:27:33.854Z,22.16
2017-10-25T03:30:10.584Z,19.76
2017-10-25T03:32:39.788Z,22.84
2017-10-25T03:35:11.498Z,21.36
2017-10-25T03:37:39.779Z,21.00
2017-10-25T03:40:27.612Z,19.86
2017-10-25T03:42:55.862Z,21.52
2017-10-25T03:45:27.663Z,19.86
2017-10-25T03:47:55.934Z,16.00
2017-10-25T03:50:41.206Z,17.24
2017-10-25T03:53:10.582Z,21.84
2017-10-25T03:55:40.856Z,20.26
2017-10-25T03:58:09.142Z,20.58
2017-10-25T04:00:41.144Z,20.46
2017-10-25T04:03:10.736Z,20.12
2017-10-25T04:05:39.966Z,19.64
2017-10-25T04:08:09.351Z,16.88
2017-10-25T04:10:52.795Z,21.86
2017-10-25T04:13:21.092Z,20.28
2017-10-25T04:15:49.382Z,18.52
2017-10-25T04:18:17.630Z,21.54
2017-10-25T04:20:54.601Z,21.64
2017-10-25T04:23:23.267Z,17.14
2017-10-25T04:25:51.536Z,20.52
2017-10-25T04:28:19.823Z,20.40
2017-10-25T04:30:54.384Z,23.68
2017-10-25T04:33:24.043Z,21.00
2017-10-25T04:35:53.172Z,19.28
2017-10-25T04:38:22.237Z,22.28
2017-10-25T04:40:57.836Z,21.98
2017-10-25T04:43:26.099Z,20.48
2017-10-25T04:45:54.378Z,17.70
2017-10-25T04:48:23.519Z,21.54
2017-10-25T04:50:53.760Z,21.96
2017-10-25T04:53:23.094Z,19.84
2017-10-25T04:55:52.266Z,19.56
2017-10-25T04:58:20.561Z,20.88
2017-10-25T05:01:12.404Z,25.14
2017-10-25T05:03:40.700Z,19.48
2017-10-25T05:06:10.272Z,18.98
2017-10-25T05:08:39.530Z,18.50
2017-10-25T05:11:16.067Z,21.58
2017-10-25T05:13:44.398Z,23.02
2017-10-25T05:16:12.651Z,19.58
2017-10-25T05:18:41.836Z,14.96
2017-10-25T05:21:10.092Z,16.08
2017-10-25T05:23:41.847Z,18.24
2017-10-25T05:26:10.117Z,14.04
2017-10-25T05:29:01.720Z,14.70
2017-10-25T05:31:29.980Z,16.64
2017-10-25T05:33:58.308Z,17.66
2017-10-25T05:36:26.679Z,18.98
2017-10-25T05:39:13.223Z,19.52
2017-10-25T05:41:41.516Z,15.10
2017-10-25T05:44:09.763Z,12.96
2017-10-25T05:46:55.173Z,15.28
2017-10-25T05:49:24.492Z,16.00
2017-10-25T05:51:53.668Z,12.52
2017-10-25T05:54:22.931Z,13.46
2017-10-25T05:56:59.480Z,17.64
2017-10-25T05:59:27.790Z,16.66
2017-10-25T06:01:56.038Z,14.22
2017-10-25T06:04:23.584Z,17.04
2017-10-25T06:06:53.056Z,13.90
2017-10-25T06:09:33.856Z,12.80
2017-10-25T06:12:02.143Z,16.66
2017-10-25T06:14:30.423Z,13.66
2017-10-25T06:16:58.710Z,15.54
2017-10-25T06:19:27.966Z,16.44
2017-10-25T06:21:56.215Z,13.58
2017-10-25T06:24:23.773Z,18.20
2017-10-25T06:26:53.632Z,15.26
2017-10-25T06:29:23.338Z,19.02
2017-10-25T06:34:45.888Z,17.26
2017-10-25T06:37:14.147Z,16.04
2017-10-25T06:39:48.604Z,16.34
2017-10-25T06:42:16.867Z,15.06
2017-10-25T06:45:08.238Z,14.24
2017-10-25T06:47:36.521Z,15.06
2017-10-25T06:50:09.096Z,14.46
2017-10-25T06:52:37.356Z,16.32
2017-10-25T06:55:28.968Z,12.76
2017-10-25T06:57:57.257Z,14.54
2017-10-25T07:00:49.133Z,15.18
2017-10-25T07:03:17.407Z,21.14
2017-10-25T07:05:51.130Z,13.02
2017-10-25T07:08:19.599Z,17.42
2017-10-25T07:10:57.863Z,13.38
2017-10-25T07:13:26.170Z,13.70
2017-10-25T07:18:47.834Z,19.10
2017-10-25T07:21:16.103Z,14.96
2017-10-25T07:23:49.784Z,12.70
2017-10-25T07:26:18.047Z,13.88
2017-10-25T07:29:08.651Z,21.86
2017-10-25T07:31:36.911Z,15.44
2017-10-25T07:34:06.199Z,10.82
2017-10-25T07:36:34.463Z,12.24
2017-10-25T07:39:14.999Z,11.74
2017-10-25T07:41:43.250Z,11.14
2017-10-25T07:47:05.890Z,11.76
2017-10-25T07:49:34.143Z,12.62
2017-10-25T07:52:02.404Z,11.50
2017-10-25T07:54:30.702Z,14.28
2017-10-25T07:56:58.946Z,12.72
2017-10-25T07:59:27.252Z,11.84
2017-10-25T08:01:55.510Z,12.34
2017-10-25T08:04:23.776Z,11.68
2017-10-25T08:06:52.788Z,10.60
2017-10-25T08:09:21.091Z,20.12
2017-10-25T08:11:49.350Z,10.78
2017-10-25T08:14:17.614Z,11.60
2017-10-25T08:16:45.896Z,11.54
2017-10-25T08:19:14.178Z,11.50
2017-10-25T08:21:42.431Z,10.66
2017-10-25T08:24:10.714Z,14.50
2017-10-25T08:26:39.934Z,10.18
2017-10-25T08:29:08.211Z,9.68
2017-10-25T08:31:36.459Z,9.64
2017-10-25T08:34:04.744Z,9.38
2017-10-25T08:36:32.999Z,10.44
2017-10-25T08:39:01.268Z,12.26
2017-10-25T08:41:48.691Z,16.72
2017-10-25T08:44:16.947Z,11.66
2017-10-25T08:47:10.591Z,15.36
2017-10-25T08:49:38.846Z,13.04
2017-10-25T08:52:17.487Z,13.38
2017-10-25T08:54:45.742Z,9.90
2017-10-25T08:57:24.447Z,9.78
2017-10-25T08:59:53.578Z,10.48
2017-10-25T09:02:23.787Z,11.60
2017-10-25T09:04:52.760Z,10.18
2017-10-25T09:07:40.790Z,11.56
2017-10-25T09:10:10.205Z,10.40
2017-10-25T09:13:01.564Z,9.58
2017-10-25T09:15:29.846Z,12.60
2017-10-25T09:18:09.026Z,9.54
2017-10-25T09:20:37.314Z,10.06
2017-10-25T09:23:05.572Z,11.24
2017-10-25T09:25:43.827Z,17.76
2017-10-25T09:28:12.086Z,10.22
2017-10-25T09:30:54.514Z,9.72
2017-10-25T09:33:23.892Z,12.64
2017-10-25T09:36:12.110Z,11.26
2017-10-25T09:38:40.359Z,8.86
2017-10-25T09:41:14.335Z,9.76
2017-10-25T09:43:43.218Z,15.22
2017-10-25T09:46:24.762Z,11.86
2017-10-25T09:48:53.496Z,10.30
2017-10-25T09:51:42.503Z,9.54
2017-10-25T09:54:10.798Z,10.12
2017-10-25T09:56:42.431Z,11.76
2017-10-25T09:59:10.708Z,9.98
2017-10-25T10:01:52.915Z,9.80
2017-10-25T10:04:21.167Z,11.14
2017-10-25T10:07:01.444Z,14.12
2017-10-25T10:09:29.707Z,17.94
2017-10-25T10:11:57.999Z,10.38
2017-10-25T10:14:25.486Z,14.34
2017-10-25T10:16:53.751Z,10.90
2017-10-25T10:19:26.340Z,13.20
2017-10-25T10:21:54.608Z,15.84
2017-10-25T10:27:26.612Z,13.00
2017-10-25T10:29:54.894Z,11.84
2017-10-25T10:32:24.106Z,13.76
2017-10-25T10:34:52.387Z,10.24
2017-10-25T10:37:20.650Z,11.06
2017-10-25T10:39:50.900Z,12.44
2017-10-25T10:42:19.151Z,13.22
2017-10-25T10:44:47.426Z,11.40
2017-10-25T10:47:15.700Z,11.80
2017-10-25T10:49:43.998Z,10.26
2017-10-25T10:52:12.257Z,10.28
2017-10-25T10:54:57.642Z,11.30
2017-10-25T10:57:25.894Z,11.70
2017-10-25T10:59:56.186Z,11.26
2017-10-25T11:02:24.435Z,10.90
2017-10-25T11:04:53.822Z,11.32
2017-10-25T11:07:23.646Z,10.06
2017-10-25T11:12:45.008Z,10.64
2017-10-25T11:15:13.272Z,10.74
2017-10-25T11:23:45.074Z,14.92
2017-10-25T11:26:13.343Z,14.34
2017-10-25T11:28:44.607Z,12.56
2017-10-25T11:31:12.862Z,11.86
2017-10-25T11:33:48.291Z,10.64
2017-10-25T11:36:16.539Z,12.30
2017-10-25T11:39:08.351Z,9.86
2017-10-25T11:41:36.612Z,10.34
2017-10-25T11:44:06.895Z,14.00
2017-10-25T11:46:34.392Z,12.94
2017-10-25T11:49:02.671Z,13.96
2017-10-25T11:51:30.950Z,13.14
2017-10-25T11:53:59.208Z,14.62
2017-10-25T11:56:27.490Z,16.16
2017-10-25T11:59:09.636Z,12.68
2017-10-25T12:01:38.415Z,11.22
2017-10-25T12:04:16.990Z,13.00
2017-10-25T12:06:45.248Z,13.20
2017-10-25T12:09:14.502Z,11.20
2017-10-25T12:11:42.805Z,11.12
2017-10-25T12:14:28.052Z,14.86
2017-10-25T12:16:56.356Z,14.40
2017-10-25T12:19:39.190Z,11.48
2017-10-25T12:22:07.475Z,13.86
2017-10-25T12:27:34.599Z,17.38
2017-10-25T12:30:02.879Z,20.10
2017-10-25T12:32:39.031Z,14.86
2017-10-25T12:35:06.544Z,13.04
2017-10-25T12:40:36.668Z,14.96
2017-10-25T12:43:04.950Z,19.84
2017-10-25T12:45:33.199Z,14.28
2017-10-25T12:48:01.515Z,13.50
2017-10-25T12:50:40.804Z,15.46
2017-10-25T12:53:10.087Z,13.52
2017-10-25T12:55:39.022Z,14.56
2017-10-25T12:58:07.319Z,14.00
2017-10-25T13:00:45.774Z,18.02
2017-10-25T13:03:14.122Z,16.02
2017-10-25T13:05:43.476Z,15.58
2017-10-25T13:08:11.732Z,16.34
2017-10-25T13:10:53.532Z,16.26
2017-10-25T13:13:22.877Z,18.18
2017-10-25T13:15:57.641Z,13.92
2017-10-25T13:18:27.229Z,14.64
2017-10-25T13:20:55.486Z,18.64
2017-10-25T13:23:28.691Z,17.80
2017-10-25T13:25:56.976Z,17.74
2017-10-25T13:28:30.831Z,17.14
2017-10-25T13:30:59.086Z,15.66
2017-10-25T13:33:27.334Z,15.82
2017-10-25T13:35:55.622Z,21.04
2017-10-25T13:38:40.464Z,17.50
2017-10-25T13:41:08.763Z,16.28
2017-10-25T13:43:50.704Z,15.32
2017-10-25T13:46:19.019Z,14.82
2017-10-25T13:51:39.985Z,15.48
2017-10-25T13:54:08.324Z,19.54
2017-10-25T13:56:50.247Z,14.54
2017-10-25T13:59:18.555Z,15.48
2017-10-25T14:04:41.476Z,17.22
2017-10-25T14:07:11.084Z,16.82
2017-10-25T14:09:40.343Z,15.98
2017-10-25T14:12:09.536Z,16.32
2017-10-25T14:14:54.614Z,18.96
2017-10-25T14:17:24.003Z,19.30
2017-10-25T14:19:53.538Z,19.00
2017-10-25T14:22:22.906Z,17.38
2017-10-25T14:24:52.417Z,17.92
2017-10-25T14:27:39.210Z,17.44
2017-10-25T14:30:08.360Z,18.86
2017-10-25T14:32:36.659Z,19.36
2017-10-25T14:35:04.911Z,20.96
2017-10-25T14:37:33.202Z,18.62
2017-10-25T14:40:01.450Z,18.20
2017-10-25T14:42:29.706Z,19.46
2017-10-25T14:44:57.984Z,19.36
2017-10-25T14:47:31.142Z,16.50
2017-10-25T14:49:59.452Z,19.04
2017-10-25T14:52:33.903Z,18.86
2017-10-25T14:55:02.191Z,18.20
2017-10-25T14:57:35.419Z,18.96
2017-10-25T15:00:03.720Z,19.80
2017-10-25T15:02:32.025Z,19.00
2017-10-25T15:05:01.244Z,18.18
2017-10-25T15:07:29.507Z,19.26
2017-10-25T15:09:58.871Z,17.54
2017-10-25T15:12:27.143Z,17.00
2017-10-25T15:14:56.460Z,18.16
2017-10-25T15:17:24.755Z,16.84
2017-10-25T15:19:54.935Z,15.82
2017-10-25T15:22:24.343Z,17.66
2017-10-25T15:24:55.647Z,16.34
2017-10-25T15:27:23.934Z,16.30
2017-10-25T15:29:53.223Z,15.58
2017-10-25T15:32:45.194Z,15.58
2017-10-25T15:35:13.468Z,15.80
2017-10-25T15:37:41.760Z,16.12
2017-10-25T15:40:10.024Z,21.26
2017-10-25T15:42:38.359Z,17.98
2017-10-25T15:45:06.607Z,17.96
2017-10-25T15:47:34.865Z,19.24
2017-10-25T15:50:03.152Z,23.10
2017-10-25T15:52:31.406Z,16.78
2017-10-25T15:54:59.688Z,16.98
2017-10-25T15:57:27.948Z,18.48
2017-10-25T15:59:56.247Z,19.18
2017-10-25T16:02:24.511Z,18.66
2017-10-25T16:04:53.915Z,21.46
2017-10-25T16:07:23.201Z,21.84
2017-10-25T16:09:52.153Z,19.48
2017-10-25T16:12:20.443Z,17.20
2017-10-25T16:14:48.725Z,23.04
2017-10-25T16:17:16.978Z,20.04
2017-10-25T16:19:45.258Z,15.20
2017-10-25T16:22:13.519Z,16.34
2017-10-25T16:24:41.815Z,16.62
2017-10-25T16:27:10.542Z,22.10
2017-10-25T16:29:39.920Z,18.94
2017-10-25T16:32:09.186Z,16.94
2017-10-25T16:34:37.474Z,18.22
2017-10-25T16:37:06.662Z,16.24
2017-10-25T16:39:34.951Z,20.12
2017-10-25T16:42:05.131Z,23.88
2017-10-25T16:44:33.414Z,16.46
2017-10-25T16:47:09.667Z,18.72
2017-10-25T16:49:38.364Z,18.22
2017-10-25T16:52:10.178Z,20.36
2017-10-25T16:54:39.237Z,18.30
2017-10-25T16:57:07.490Z,19.32
2017-10-25T16:59:35.775Z,18.46
2017-10-25T17:02:05.983Z,22.56
2017-10-25T17:04:34.251Z,19.92
2017-10-25T17:07:06.808Z,20.08
2017-10-25T17:09:35.073Z,20.12
2017-10-25T17:12:04.355Z,20.80
2017-10-25T17:14:32.636Z,21.22
2017-10-25T17:17:01.855Z,21.04
2017-10-25T17:19:30.160Z,28.60
2017-10-25T17:22:05.787Z,26.44
2017-10-25T17:24:34.083Z,28.42
2017-10-25T17:27:03.304Z,25.62
2017-10-25T17:29:31.559Z,31.78
2017-10-25T17:32:08.397Z,33.38
2017-10-25T17:34:36.655Z,33.16
2017-10-25T17:37:08.408Z,26.46
2017-10-25T17:39:36.684Z,21.22
2017-10-25T17:42:04.959Z,20.84
2017-10-25T17:44:33.247Z,20.62
2017-10-25T17:47:00.757Z,21.48
2017-10-25T17:49:30.059Z,19.44
2017-10-25T17:51:58.310Z,19.52
2017-10-25T17:54:39.401Z,24.78
2017-10-25T17:57:07.722Z,18.00
2017-10-25T17:59:37.587Z,18.74
2017-10-25T18:02:05.883Z,18.86
2017-10-25T18:04:34.136Z,19.46
2017-10-25T18:07:02.412Z,19.60
2017-10-25T18:09:31.864Z,17.98
2017-10-25T18:12:00.154Z,19.92
2017-10-25T18:14:29.375Z,17.46
2017-10-25T18:16:57.670Z,17.42
2017-10-25T18:19:38.489Z,20.38
2017-10-25T18:22:06.783Z,17.72
2017-10-25T18:24:37.018Z,15.82
2017-10-25T18:27:05.274Z,16.96
2017-10-25T18:29:35.487Z,16.36
2017-10-25T18:32:03.751Z,18.00
2017-10-25T18:34:37.659Z,18.56
2017-10-25T18:37:05.911Z,20.88
2017-10-25T18:39:34.199Z,18.42
2017-10-25T18:42:02.491Z,18.60
2017-10-25T18:44:43.538Z,24.46
2017-10-25T18:47:11.832Z,17.90
2017-10-25T18:49:40.495Z,20.98
2017-10-25T18:52:09.705Z,20.08
2017-10-25T18:54:38.462Z,17.08
2017-10-25T18:57:06.746Z,20.08
2017-10-25T18:59:56.176Z,20.20
2017-10-25T19:02:24.466Z,15.58
2017-10-25T19:04:53.851Z,16.56
2017-10-25T19:07:23.161Z,18.34
2017-10-25T19:09:58.871Z,17.50
2017-10-25T19:12:27.184Z,17.28
2017-10-25T19:14:56.418Z,18.62
2017-10-25T19:17:24.055Z,19.86
2017-10-25T19:19:59.958Z,16.36
2017-10-25T19:22:28.246Z,19.70
2017-10-25T19:24:56.540Z,16.90
2017-10-25T19:27:24.801Z,14.60
2017-10-25T19:29:53.839Z,15.90
2017-10-25T19:32:22.879Z,19.36
2017-10-25T19:35:05.832Z,17.42
2017-10-25T19:37:34.144Z,17.26
2017-10-25T19:40:03.394Z,16.12
2017-10-25T19:42:31.675Z,12.24
2017-10-25T19:45:05.247Z,14.92
2017-10-25T19:47:33.529Z,13.72
2017-10-25T19:50:05.471Z,14.62
2017-10-25T19:52:33.754Z,13.96
2017-10-25T19:55:02.024Z,17.96
2017-10-25T19:57:30.306Z,17.40
2017-10-25T19:59:58.615Z,17.28
2017-10-25T20:02:26.875Z,18.78
2017-10-25T20:04:55.139Z,18.94
2017-10-25T20:07:24.339Z,19.60
2017-10-25T20:09:53.902Z,17.92
2017-10-25T20:12:22.951Z,17.16
2017-10-25T20:14:54.755Z,19.24
2017-10-25T20:17:24.216Z,18.58
2017-10-25T20:20:02.567Z,19.00
2017-10-25T20:22:30.880Z,20.04
2017-10-25T20:25:00.065Z,21.48
2017-10-25T20:27:28.314Z,17.98
2017-10-25T20:30:07.729Z,18.08
2017-10-25T20:32:36.858Z,16.84
2017-10-25T20:35:14.895Z,19.34
2017-10-25T20:37:43.161Z,16.64
2017-10-25T20:40:11.410Z,19.66
2017-10-25T20:42:40.823Z,15.02
2017-10-25T20:45:10.597Z,12.76
2017-10-25T20:47:38.881Z,15.06
2017-10-25T20:50:10.312Z,15.56
2017-10-25T20:52:39.280Z,13.48
2017-10-25T20:55:31.356Z,13.64
2017-10-25T20:57:59.650Z,14.26
2017-10-25T21:00:32.331Z,14.24
2017-10-25T21:03:00.612Z,12.78
2017-10-25T21:05:30.783Z,9.96
2017-10-25T21:07:59.088Z,11.22
2017-10-25T21:10:44.972Z,12.90
2017-10-25T21:13:13.270Z,13.50
2017-10-25T21:15:53.989Z,15.14
2017-10-25T21:18:22.901Z,13.32
2017-10-25T21:20:58.343Z,17.18
2017-10-25T21:23:26.627Z,22.80
2017-10-25T21:25:55.850Z,17.86
2017-10-25T21:28:24.149Z,17.76
2017-10-25T21:30:55.815Z,23.60
2017-10-25T21:33:24.100Z,19.20
2017-10-25T21:35:53.363Z,25.24
2017-10-25T21:38:38.825Z,19.58
2017-10-25T21:41:07.120Z,20.90
2017-10-25T21:43:55.913Z,26.12
2017-10-25T21:46:24.175Z,19.12
2017-10-25T21:48:58.114Z,22.42
2017-10-25T21:51:26.383Z,16.36
2017-10-25T21:53:59.323Z,18.80
2017-10-25T21:56:27.583Z,17.52
2017-10-25T21:58:55.835Z,14.62
2017-10-25T22:01:48.016Z,15.96
2017-10-25T22:04:15.499Z,15.20
2017-10-25T22:06:51.610Z,15.64
2017-10-25T22:09:19.873Z,20.14
2017-10-25T22:11:48.159Z,23.90
2017-10-25T22:14:16.419Z,18.44
2017-10-25T22:16:59.699Z,22.80
2017-10-25T22:19:27.958Z,19.08
2017-10-25T22:21:56.234Z,19.98
2017-10-25T22:24:24.492Z,19.92
2017-10-25T22:27:01.308Z,20.48
2017-10-25T22:29:29.571Z,25.90
2017-10-25T22:32:02.681Z,25.06
2017-10-25T22:34:30.941Z,22.74
2017-10-25T22:37:02.872Z,13.84
2017-10-25T22:39:31.130Z,12.48
2017-10-25T22:42:00.346Z,14.80
2017-10-25T22:44:28.637Z,17.16
2017-10-25T22:47:11.468Z,21.38
2017-10-25T22:49:40.980Z,18.70
2017-10-25T22:52:11.219Z,18.08
2017-10-25T22:54:40.647Z,18.92
2017-10-25T22:57:10.863Z,20.18
2017-10-25T22:59:39.154Z,22.40
2017-10-25T23:02:07.407Z,16.50
2017-10-25T23:04:35.690Z,16.38
2017-10-25T23:07:23.278Z,16.52
2017-10-25T23:09:51.527Z,17.74
2017-10-25T23:12:19.787Z,15.94
2017-10-25T23:14:48.062Z,18.80
2017-10-25T23:17:23.482Z,14.52
2017-10-25T23:19:52.883Z,15.70
2017-10-25T23:25:15.483Z,21.30
2017-10-25T23:27:43.739Z,21.74
2017-10-25T23:30:25.764Z,21.68
2017-10-25T23:32:54.019Z,26.24
2017-10-25T23:35:39.655Z,26.70
2017-10-25T23:38:08.708Z,29.22
2017-10-25T23:40:53.887Z,24.92
2017-10-25T23:43:23.177Z,27.00
2017-10-25T23:46:04.847Z,24.82
2017-10-25T23:48:33.103Z,25.62
2017-10-25T23:51:09.176Z,21.76
2017-10-25T23:53:37.436Z,23.94
2017-10-25T23:56:29.392Z,24.06
2017-10-25T23:58:57.687Z,26.24
